sensor_id;sensor_type;location;lat;lon;timestamp;P1;durP1;ratioP1;P2;durP2;ratioP2
84917;SDS011;75182;51.736;5.318;2024-01-06T00:04:46;14.13;;;7.13;;
84917;SDS011;75182;51.736;5.318;2024-01-06T00:14:46;16.90;;;9.93;;
84917;SDS011;75182;51.736;5.318;2024-01-06T00:24:47;16.70;;;8.70;;
84917;SDS011;75182;51.736;5.318;2024-01-06T00:34:48;13.80;;;7.15;;
84917;SDS011;75182;51.736;5.318;2024-01-06T00:44:48;13.48;;;7.30;;
84917;SDS011;75182;51.736;5.318;2024-01-06T00:54:48;14.13;;;7.10;;
84917;SDS011;75182;51.736;5.318;2024-01-06T01:04:49;12.82;;;6.63;;
84917;SDS011;75182;51.736;5.318;2024-01-06T01:14:49;11.02;;;6.28;;
84917;SDS011;75182;51.736;5.318;2024-01-06T01:24:50;11.82;;;6.57;;
84917;SDS011;75182;51.736;5.318;2024-01-06T01:34:51;12.70;;;6.80;;
84917;SDS011;75182;51.736;5.318;2024-01-06T01:44:51;10.05;;;5.43;;
84917;SDS011;75182;51.736;5.318;2024-01-06T01:54:51;9.30;;;5.63;;
84917;SDS011;75182;51.736;5.318;2024-01-06T02:04:52;8.70;;;4.85;;
84917;SDS011;75182;51.736;5.318;2024-01-06T02:14:53;7.80;;;5.13;;
84917;SDS011;75182;51.736;5.318;2024-01-06T02:24:53;6.50;;;3.38;;
84917;SDS011;75182;51.736;5.318;2024-01-06T02:34:54;4.43;;;2.67;;
84917;SDS011;75182;51.736;5.318;2024-01-06T02:44:54;5.65;;;3.80;;
84917;SDS011;75182;51.736;5.318;2024-01-06T02:54:54;5.43;;;3.63;;
84917;SDS011;75182;51.736;5.318;2024-01-06T03:04:55;4.35;;;2.88;;
84917;SDS011;75182;51.736;5.318;2024-01-06T03:14:55;5.20;;;2.88;;
84917;SDS011;75182;51.736;5.318;2024-01-06T03:24:55;6.22;;;4.00;;
84917;SDS011;75182;51.736;5.318;2024-01-06T03:34:56;3.90;;;2.38;;
84917;SDS011;75182;51.736;5.318;2024-01-06T03:44:56;6.65;;;4.82;;
84917;SDS011;75182;51.736;5.318;2024-01-06T03:54:56;7.70;;;4.10;;
84917;SDS011;75182;51.736;5.318;2024-01-06T04:04:57;6.07;;;4.22;;
84917;SDS011;75182;51.736;5.318;2024-01-06T04:14:57;5.07;;;3.43;;
84917;SDS011;75182;51.736;5.318;2024-01-06T04:24:57;5.72;;;3.38;;
84917;SDS011;75182;51.736;5.318;2024-01-06T04:34:58;3.78;;;2.25;;
84917;SDS011;75182;51.736;5.318;2024-01-06T04:44:58;3.25;;;1.50;;
84917;SDS011;75182;51.736;5.318;2024-01-06T04:54:58;4.57;;;2.75;;
84917;SDS011;75182;51.736;5.318;2024-01-06T05:04:59;6.40;;;3.80;;
84917;SDS011;75182;51.736;5.318;2024-01-06T05:14:59;6.30;;;3.55;;
84917;SDS011;75182;51.736;5.318;2024-01-06T05:24:59;5.70;;;3.10;;
84917;SDS011;75182;51.736;5.318;2024-01-06T05:35:00;2.92;;;1.73;;
84917;SDS011;75182;51.736;5.318;2024-01-06T05:45:00;5.65;;;3.42;;
84917;SDS011;75182;51.736;5.318;2024-01-06T05:55:00;5.25;;;3.95;;
84917;SDS011;75182;51.736;5.318;2024-01-06T06:05:01;5.57;;;3.75;;
84917;SDS011;75182;51.736;5.318;2024-01-06T06:15:01;6.63;;;4.00;;
84917;SDS011;75182;51.736;5.318;2024-01-06T06:25:04;8.45;;;5.07;;
84917;SDS011;75182;51.736;5.318;2024-01-06T06:35:04;8.60;;;5.53;;
84917;SDS011;75182;51.736;5.318;2024-01-06T06:45:05;7.72;;;5.40;;
84917;SDS011;75182;51.736;5.318;2024-01-06T06:55:06;6.07;;;4.15;;
84917;SDS011;75182;51.736;5.318;2024-01-06T07:05:07;7.97;;;5.40;;
84917;SDS011;75182;51.736;5.318;2024-01-06T07:15:08;7.25;;;3.83;;
84917;SDS011;75182;51.736;5.318;2024-01-06T07:25:11;6.90;;;4.13;;
84917;SDS011;75182;51.736;5.318;2024-01-06T07:35:11;10.85;;;6.40;;
84917;SDS011;75182;51.736;5.318;2024-01-06T07:45:12;9.38;;;6.03;;
84917;SDS011;75182;51.736;5.318;2024-01-06T07:55:14;9.38;;;5.68;;
84917;SDS011;75182;51.736;5.318;2024-01-06T08:05:14;5.57;;;3.53;;
84917;SDS011;75182;51.736;5.318;2024-01-06T08:15:15;6.72;;;2.45;;
84917;SDS011;75182;51.736;5.318;2024-01-06T08:25:15;5.82;;;3.55;;
84917;SDS011;75182;51.736;5.318;2024-01-06T08:35:17;6.30;;;4.07;;
84917;SDS011;75182;51.736;5.318;2024-01-06T08:45:17;5.43;;;3.05;;
84917;SDS011;75182;51.736;5.318;2024-01-06T08:55:18;5.22;;;3.25;;
84917;SDS011;75182;51.736;5.318;2024-01-06T09:05:18;7.15;;;4.15;;
84917;SDS011;75182;51.736;5.318;2024-01-06T09:15:18;7.30;;;4.32;;
84917;SDS011;75182;51.736;5.318;2024-01-06T09:25:18;6.00;;;3.47;;
84917;SDS011;75182;51.736;5.318;2024-01-06T09:35:19;4.47;;;2.60;;
84917;SDS011;75182;51.736;5.318;2024-01-06T09:45:20;7.18;;;4.80;;
84917;SDS011;75182;51.736;5.318;2024-01-06T09:55:22;5.60;;;4.10;;
84917;SDS011;75182;51.736;5.318;2024-01-06T10:05:25;6.82;;;4.28;;
84917;SDS011;75182;51.736;5.318;2024-01-06T10:15:26;3.22;;;1.20;;
84917;SDS011;75182;51.736;5.318;2024-01-06T10:25:26;3.75;;;1.95;;
84917;SDS011;75182;51.736;5.318;2024-01-06T10:35:26;9.35;;;5.43;;
84917;SDS011;75182;51.736;5.318;2024-01-06T10:45:28;6.82;;;4.78;;
84917;SDS011;75182;51.736;5.318;2024-01-06T10:55:29;6.57;;;3.70;;
84917;SDS011;75182;51.736;5.318;2024-01-06T11:05:31;3.67;;;1.83;;
84917;SDS011;75182;51.736;5.318;2024-01-06T11:15:42;6.43;;;3.65;;
84917;SDS011;75182;51.736;5.318;2024-01-06T11:25:43;7.03;;;3.47;;
84917;SDS011;75182;51.736;5.318;2024-01-06T11:35:43;4.38;;;3.00;;
84917;SDS011;75182;51.736;5.318;2024-01-06T11:45:49;7.90;;;3.38;;
84917;SDS011;75182;51.736;5.318;2024-01-06T11:55:50;7.35;;;4.40;;
84917;SDS011;75182;51.736;5.318;2024-01-06T12:05:58;4.32;;;2.40;;
84917;SDS011;75182;51.736;5.318;2024-01-06T12:16:00;5.47;;;3.33;;
84917;SDS011;75182;51.736;5.318;2024-01-06T12:26:00;5.65;;;3.20;;
84917;SDS011;75182;51.736;5.318;2024-01-06T12:36:01;5.95;;;3.50;;
84917;SDS011;75182;51.736;5.318;2024-01-06T12:46:02;5.05;;;2.45;;
84917;SDS011;75182;51.736;5.318;2024-01-06T12:56:02;5.43;;;3.83;;
84917;SDS011;75182;51.736;5.318;2024-01-06T13:06:03;8.30;;;3.92;;
84917;SDS011;75182;51.736;5.318;2024-01-06T13:16:03;8.15;;;4.88;;
84917;SDS011;75182;51.736;5.318;2024-01-06T13:26:05;8.50;;;4.93;;
84917;SDS011;75182;51.736;5.318;2024-01-06T13:36:05;5.78;;;4.20;;
84917;SDS011;75182;51.736;5.318;2024-01-06T13:46:06;7.60;;;4.65;;
84917;SDS011;75182;51.736;5.318;2024-01-06T13:56:07;5.95;;;3.83;;
84917;SDS011;75182;51.736;5.318;2024-01-06T14:06:07;7.17;;;4.80;;
84917;SDS011;75182;51.736;5.318;2024-01-06T14:16:09;8.00;;;4.43;;
84917;SDS011;75182;51.736;5.318;2024-01-06T14:26:09;6.38;;;4.05;;
84917;SDS011;75182;51.736;5.318;2024-01-06T14:36:10;7.20;;;5.38;;
84917;SDS011;75182;51.736;5.318;2024-01-06T14:46:10;10.10;;;5.90;;
84917;SDS011;75182;51.736;5.318;2024-01-06T14:56:10;12.10;;;7.03;;
84917;SDS011;75182;51.736;5.318;2024-01-06T15:06:11;11.45;;;6.35;;
84917;SDS011;75182;51.736;5.318;2024-01-06T15:16:11;5.68;;;3.20;;
84917;SDS011;75182;51.736;5.318;2024-01-06T15:26:13;10.70;;;6.60;;
84917;SDS011;75182;51.736;5.318;2024-01-06T15:36:21;9.77;;;5.63;;
84917;SDS011;75182;51.736;5.318;2024-01-06T15:46:22;10.50;;;6.47;;
84917;SDS011;75182;51.736;5.318;2024-01-06T15:56:22;8.55;;;4.75;;
84917;SDS011;75182;51.736;5.318;2024-01-06T16:06:22;6.95;;;3.30;;
84917;SDS011;75182;51.736;5.318;2024-01-06T16:16:27;14.65;;;6.57;;
84917;SDS011;75182;51.736;5.318;2024-01-06T16:26:28;8.40;;;5.72;;
84917;SDS011;75182;51.736;5.318;2024-01-06T16:36:28;8.25;;;5.47;;
84917;SDS011;75182;51.736;5.318;2024-01-06T16:46:29;8.00;;;5.13;;
84917;SDS011;75182;51.736;5.318;2024-01-06T16:56:29;6.93;;;4.80;;
84917;SDS011;75182;51.736;5.318;2024-01-06T17:06:30;9.80;;;5.03;;
84917;SDS011;75182;51.736;5.318;2024-01-06T17:16:30;8.05;;;4.78;;
84917;SDS011;75182;51.736;5.318;2024-01-06T17:26:30;8.38;;;4.80;;
84917;SDS011;75182;51.736;5.318;2024-01-06T17:36:31;6.80;;;4.22;;
84917;SDS011;75182;51.736;5.318;2024-01-06T17:46:31;6.55;;;3.53;;
84917;SDS011;75182;51.736;5.318;2024-01-06T17:56:31;7.97;;;5.05;;
84917;SDS011;75182;51.736;5.318;2024-01-06T18:06:32;7.43;;;4.40;;
84917;SDS011;75182;51.736;5.318;2024-01-06T18:16:32;7.93;;;5.70;;
84917;SDS011;75182;51.736;5.318;2024-01-06T18:26:32;6.60;;;3.92;;
84917;SDS011;75182;51.736;5.318;2024-01-06T18:36:33;5.60;;;3.47;;
84917;SDS011;75182;51.736;5.318;2024-01-06T18:46:37;5.13;;;3.03;;
84917;SDS011;75182;51.736;5.318;2024-01-06T18:56:38;9.75;;;6.55;;
84917;SDS011;75182;51.736;5.318;2024-01-06T19:06:38;9.02;;;6.45;;
84917;SDS011;75182;51.736;5.318;2024-01-06T19:16:40;8.02;;;4.25;;
84917;SDS011;75182;51.736;5.318;2024-01-06T19:26:43;3.67;;;2.42;;
84917;SDS011;75182;51.736;5.318;2024-01-06T19:36:43;6.78;;;3.67;;
84917;SDS011;75182;51.736;5.318;2024-01-06T19:46:43;6.35;;;4.28;;
84917;SDS011;75182;51.736;5.318;2024-01-06T19:56:44;9.48;;;6.38;;
84917;SDS011;75182;51.736;5.318;2024-01-06T20:06:44;10.30;;;6.55;;
84917;SDS011;75182;51.736;5.318;2024-01-06T20:16:45;8.05;;;5.13;;
84917;SDS011;75182;51.736;5.318;2024-01-06T20:26:46;12.93;;;8.57;;
84917;SDS011;75182;51.736;5.318;2024-01-06T20:36:46;11.50;;;7.10;;
84917;SDS011;75182;51.736;5.318;2024-01-06T20:46:47;12.82;;;8.90;;
84917;SDS011;75182;51.736;5.318;2024-01-06T20:56:48;13.73;;;8.82;;
84917;SDS011;75182;51.736;5.318;2024-01-06T21:06:49;13.52;;;9.63;;
84917;SDS011;75182;51.736;5.318;2024-01-06T21:16:49;10.20;;;6.93;;
84917;SDS011;75182;51.736;5.318;2024-01-06T21:26:50;12.05;;;7.50;;
84917;SDS011;75182;51.736;5.318;2024-01-06T21:36:51;14.05;;;9.38;;
84917;SDS011;75182;51.736;5.318;2024-01-06T21:46:51;9.73;;;6.35;;
84917;SDS011;75182;51.736;5.318;2024-01-06T21:56:51;8.25;;;4.60;;
84917;SDS011;75182;51.736;5.318;2024-01-06T22:06:52;13.75;;;7.80;;
84917;SDS011;75182;51.736;5.318;2024-01-06T22:16:52;23.35;;;12.27;;
84917;SDS011;75182;51.736;5.318;2024-01-06T22:26:52;15.43;;;10.48;;
84917;SDS011;75182;51.736;5.318;2024-01-06T22:36:53;15.20;;;10.50;;
84917;SDS011;75182;51.736;5.318;2024-01-06T22:46:55;13.18;;;9.57;;
84917;SDS011;75182;51.736;5.318;2024-01-06T22:56:56;13.65;;;9.13;;
84917;SDS011;75182;51.736;5.318;2024-01-06T23:06:56;12.13;;;8.32;;
84917;SDS011;75182;51.736;5.318;2024-01-06T23:16:56;11.13;;;6.30;;
84917;SDS011;75182;51.736;5.318;2024-01-06T23:26:57;14.57;;;8.63;;
84917;SDS011;75182;51.736;5.318;2024-01-06T23:36:57;11.00;;;5.57;;
84917;SDS011;75182;51.736;5.318;2024-01-06T23:46:58;16.02;;;8.85;;
84917;SDS011;75182;51.736;5.318;2024-01-06T23:56:58;12.80;;;8.02;;
